createdAt,value
2019-05-25T00:00:54.840Z,3.20
2019-05-25T00:03:25.747Z,3.60
2019-05-25T00:05:54.227Z,3.10
2019-05-25T00:08:23.830Z,3.37
2019-05-25T00:10:54.953Z,3.40
2019-05-25T00:13:27.910Z,3.53
2019-05-25T00:15:58.148Z,3.20
2019-05-25T00:18:37.164Z,3.47
2019-05-25T00:21:15.188Z,3.17
2019-05-25T00:24:11.616Z,3.20
2019-05-25T00:26:35.066Z,3.17
2019-05-25T00:29:06.220Z,3.13
2019-05-25T00:31:36.828Z,3.10
2019-05-25T00:34:22.804Z,3.80
2019-05-25T00:36:51.141Z,3.47
2019-05-25T00:39:33.703Z,3.10
2019-05-25T00:42:03.738Z,3.53
2019-05-25T00:44:51.529Z,3.03
2019-05-25T00:47:22.932Z,3.90
2019-05-25T00:49:54.053Z,3.40
2019-05-25T00:52:47.268Z,3.30
2019-05-25T00:55:25.754Z,3.20
2019-05-25T00:57:57.873Z,3.07
2019-05-25T01:00:26.157Z,3.50
2019-05-25T01:03:01.230Z,3.47
2019-05-25T01:05:35.347Z,4.17
2019-05-25T01:08:14.366Z,3.90
2019-05-25T01:11:06.963Z,4.13
2019-05-25T01:13:49.337Z,3.07
2019-05-25T01:16:16.748Z,3.80
2019-05-25T01:18:44.333Z,3.80
2019-05-25T01:21:11.968Z,3.80
2019-05-25T01:23:43.808Z,4.10
2019-05-25T01:26:11.149Z,4.00
2019-05-25T01:28:40.550Z,4.77
2019-05-25T01:31:10.261Z,4.50
2019-05-25T01:33:40.532Z,4.30
2019-05-25T01:36:08.010Z,5.07
2019-05-25T01:38:36.734Z,3.83
2019-05-25T01:41:04.252Z,5.70
2019-05-25T01:43:31.568Z,5.97
2019-05-25T01:45:58.723Z,4.77
2019-05-25T01:48:26.122Z,5.30
2019-05-25T01:50:56.187Z,5.90
2019-05-25T01:53:27.852Z,4.97
2019-05-25T01:55:58.546Z,4.73
2019-05-25T01:58:29.313Z,4.57
2019-05-25T02:00:58.961Z,5.90
2019-05-25T02:03:26.641Z,5.73
2019-05-25T02:05:55.155Z,5.20
2019-05-25T02:08:34.287Z,5.10
2019-05-25T02:11:03.000Z,5.50
2019-05-25T02:13:31.434Z,5.07
2019-05-25T02:15:58.956Z,4.77
2019-05-25T02:18:31.600Z,5.67
2019-05-25T02:21:00.103Z,5.20
2019-05-25T02:23:28.966Z,4.90
2019-05-25T02:25:56.625Z,5.60
2019-05-25T02:28:24.061Z,5.50
2019-05-25T02:30:53.154Z,6.23
2019-05-25T02:33:22.578Z,5.57
2019-05-25T02:35:50.235Z,5.60
2019-05-25T02:38:20.256Z,5.30
2019-05-25T02:40:48.937Z,5.60
2019-05-25T02:43:16.198Z,5.60
2019-05-25T02:45:46.789Z,5.30
2019-05-25T02:48:15.316Z,5.93
2019-05-25T02:50:42.671Z,6.20
2019-05-25T02:53:10.090Z,6.30
2019-05-25T02:55:37.802Z,4.83
2019-05-25T02:58:05.218Z,6.00
2019-05-25T03:00:33.205Z,5.40
2019-05-25T03:03:01.931Z,5.63
2019-05-25T03:05:29.828Z,6.03
2019-05-25T03:07:58.341Z,6.30
2019-05-25T03:10:28.105Z,5.20
2019-05-25T03:12:55.443Z,5.60
2019-05-25T03:15:23.272Z,5.03
2019-05-25T03:17:50.955Z,5.57
2019-05-25T03:20:18.403Z,5.57
2019-05-25T03:22:46.543Z,5.27
2019-05-25T03:25:16.715Z,5.57
2019-05-25T03:27:44.078Z,6.93
2019-05-25T03:30:11.711Z,4.60
2019-05-25T03:32:40.174Z,4.43
2019-05-25T03:35:15.203Z,5.20
2019-05-25T03:37:46.744Z,4.67
2019-05-25T03:40:14.162Z,4.80
2019-05-25T03:42:44.758Z,4.40
2019-05-25T03:45:12.174Z,5.43
2019-05-25T03:47:40.762Z,5.43
2019-05-25T03:50:08.257Z,4.67
2019-05-25T03:52:37.677Z,4.83
2019-05-25T03:55:05.534Z,5.20
2019-05-25T03:57:35.990Z,4.77
2019-05-25T04:00:04.664Z,4.37
2019-05-25T04:02:32.404Z,4.43
2019-05-25T04:05:00.473Z,4.47
2019-05-25T04:07:27.941Z,4.60
2019-05-25T04:09:55.176Z,4.70
2019-05-25T04:12:23.027Z,4.70
2019-05-25T04:14:54.713Z,5.00
2019-05-25T04:17:22.224Z,5.20
2019-05-25T04:19:51.370Z,5.23
2019-05-25T04:22:18.669Z,5.57
2019-05-25T04:24:46.470Z,5.10
2019-05-25T04:27:17.379Z,4.50
2019-05-25T04:29:45.280Z,4.97
2019-05-25T04:32:13.963Z,4.87
2019-05-25T04:34:42.303Z,5.50
2019-05-25T04:37:10.005Z,6.07
2019-05-25T04:39:37.565Z,5.43
2019-05-25T04:42:05.717Z,5.80
2019-05-25T04:44:33.955Z,6.13
2019-05-25T04:47:02.294Z,5.73
2019-05-25T04:49:29.963Z,5.20
2019-05-25T04:51:57.497Z,5.60
2019-05-25T04:54:25.549Z,5.90
2019-05-25T04:56:54.439Z,6.20
2019-05-25T04:59:21.873Z,5.33
2019-05-25T05:01:49.227Z,5.87
2019-05-25T05:04:16.665Z,5.97
2019-05-25T05:06:44.263Z,5.20
2019-05-25T05:09:11.869Z,5.30
2019-05-25T05:11:39.892Z,5.00
2019-05-25T05:14:09.496Z,4.50
2019-05-25T05:16:38.269Z,4.53
2019-05-25T05:19:05.848Z,3.67
2019-05-25T05:21:33.029Z,4.10
2019-05-25T05:24:00.887Z,3.63
2019-05-25T05:26:28.891Z,3.53
2019-05-25T05:29:01.518Z,3.70
2019-05-25T05:31:30.861Z,4.23
2019-05-25T05:33:58.182Z,3.30
2019-05-25T05:36:27.219Z,3.13
2019-05-25T05:38:55.282Z,4.70
2019-05-25T05:41:23.078Z,3.23
2019-05-25T05:43:50.552Z,3.30
2019-05-25T05:46:18.022Z,3.20
2019-05-25T05:48:47.102Z,3.47
2019-05-25T05:51:14.487Z,2.90
2019-05-25T05:53:42.168Z,3.40
2019-05-25T05:56:10.553Z,3.07
2019-05-25T05:58:38.206Z,3.10
2019-05-25T06:01:06.303Z,2.90
2019-05-25T06:03:33.792Z,3.07
2019-05-25T06:06:04.233Z,2.97
2019-05-25T06:08:31.877Z,3.00
2019-05-25T06:11:02.286Z,3.03
2019-05-25T06:13:30.115Z,3.10
2019-05-25T06:15:57.829Z,3.13
2019-05-25T06:18:25.396Z,2.60
2019-05-25T06:20:53.163Z,2.80
2019-05-25T06:23:20.541Z,2.50
2019-05-25T06:25:56.777Z,2.90
2019-05-25T06:28:24.540Z,2.97
2019-05-25T06:30:53.608Z,3.00
2019-05-25T06:33:26.910Z,3.30
2019-05-25T06:35:54.285Z,2.90
2019-05-25T06:38:25.363Z,2.53
2019-05-25T06:40:52.782Z,3.17
2019-05-25T06:43:20.855Z,2.80
2019-05-25T06:45:53.610Z,2.80
2019-05-25T06:48:22.027Z,3.20
2019-05-25T06:50:49.483Z,3.30
2019-05-25T06:53:35.705Z,2.97
2019-05-25T06:56:04.261Z,2.80
2019-05-25T06:58:34.632Z,2.87
2019-05-25T07:01:03.504Z,2.80
2019-05-25T07:03:42.018Z,2.93
2019-05-25T07:06:10.267Z,3.00
2019-05-25T07:08:37.791Z,2.80
2019-05-25T07:11:05.965Z,3.03
2019-05-25T07:13:33.477Z,2.73
2019-05-25T07:16:01.787Z,2.80
2019-05-25T07:18:35.708Z,3.10
2019-05-25T07:29:30.495Z,3.07
2019-05-25T07:31:58.559Z,3.50
2019-05-25T07:34:28.265Z,3.20
2019-05-25T07:36:56.182Z,2.90
2019-05-25T07:39:23.744Z,3.40
2019-05-25T07:41:54.347Z,3.40
2019-05-25T07:44:22.437Z,3.07
2019-05-25T07:46:52.597Z,3.03
2019-05-25T07:49:20.706Z,3.13
2019-05-25T07:51:48.422Z,2.97
2019-05-25T07:54:17.043Z,3.13
2019-05-25T07:56:47.766Z,3.07
2019-05-25T07:59:15.268Z,3.20
2019-05-25T08:01:43.822Z,2.77
2019-05-25T08:04:11.324Z,2.90
2019-05-25T08:06:41.880Z,3.00
2019-05-25T08:09:10.720Z,2.63
2019-05-25T08:11:40.700Z,2.97
2019-05-25T08:14:11.813Z,2.87
2019-05-25T08:16:44.473Z,2.70
2019-05-25T08:19:13.026Z,2.70
2019-05-25T08:21:40.634Z,2.87
2019-05-25T08:24:13.788Z,3.33
2019-05-25T08:26:42.752Z,2.90
2019-05-25T08:29:11.739Z,2.80
2019-05-25T08:31:41.359Z,2.83
2019-05-25T08:34:09.040Z,2.50
2019-05-25T08:36:46.369Z,2.93
2019-05-25T08:39:14.060Z,3.30
2019-05-25T08:41:45.688Z,2.57
2019-05-25T08:44:20.031Z,2.83
2019-05-25T08:46:51.214Z,3.27
2019-05-25T08:49:26.808Z,3.00
2019-05-25T08:52:04.263Z,2.50
2019-05-25T08:54:48.470Z,2.77
2019-05-25T08:57:18.753Z,3.07
2019-05-25T08:59:47.875Z,3.00
2019-05-25T09:02:18.374Z,2.83
2019-05-25T09:04:53.822Z,2.90
2019-05-25T09:07:30.136Z,3.47
2019-05-25T09:10:00.426Z,3.00
2019-05-25T09:12:33.858Z,3.20
2019-05-25T09:15:05.865Z,2.73
2019-05-25T09:17:34.721Z,2.90
2019-05-25T09:20:08.946Z,3.10
2019-05-25T09:22:39.286Z,2.60
2019-05-25T09:25:08.064Z,2.60
2019-05-25T09:27:38.124Z,2.83
2019-05-25T09:30:10.575Z,3.03
2019-05-25T09:32:46.686Z,2.80
2019-05-25T09:35:25.577Z,2.80
2019-05-25T09:37:54.926Z,2.50
2019-05-25T09:40:26.307Z,2.57
2019-05-25T09:43:06.633Z,3.00
2019-05-25T09:45:43.045Z,3.23
2019-05-25T09:48:20.455Z,2.47
2019-05-25T09:50:55.590Z,2.47
2019-05-25T09:53:23.902Z,2.60
2019-05-25T09:56:02.353Z,2.03
2019-05-25T09:58:38.107Z,2.33
2019-05-25T10:01:08.931Z,2.10
2019-05-25T10:03:39.832Z,2.37
2019-05-25T10:06:13.302Z,2.03
2019-05-25T10:08:45.594Z,2.03
2019-05-25T10:11:13.312Z,2.00
2019-05-25T10:13:41.408Z,2.10
2019-05-25T10:16:14.032Z,2.03
2019-05-25T10:18:42.190Z,1.90
2019-05-25T10:21:09.685Z,2.27
2019-05-25T10:24:00.087Z,2.73
2019-05-25T10:26:28.611Z,2.10
2019-05-25T10:28:55.963Z,2.03
2019-05-25T10:31:27.249Z,2.00
2019-05-25T10:34:06.243Z,2.00
2019-05-25T10:36:42.766Z,1.67
2019-05-25T10:39:17.681Z,1.77
2019-05-25T10:41:53.424Z,1.73
2019-05-25T10:44:25.006Z,1.80
2019-05-25T10:46:52.728Z,1.97
2019-05-25T10:49:20.383Z,2.10
2019-05-25T10:51:48.074Z,1.67
2019-05-25T10:54:18.975Z,1.47
2019-05-25T10:56:50.745Z,1.77
2019-05-25T10:59:24.951Z,2.00
2019-05-25T11:02:10.001Z,1.63
2019-05-25T11:04:57.275Z,2.00
2019-05-25T11:07:35.288Z,1.70
2019-05-25T11:10:04.471Z,1.90
2019-05-25T11:12:42.459Z,2.40
2019-05-25T11:15:17.249Z,1.90
2019-05-25T11:17:44.858Z,1.80
2019-05-25T11:20:23.134Z,1.90
2019-05-25T11:23:07.471Z,2.20
2019-05-25T11:25:34.851Z,1.63
2019-05-25T11:28:02.097Z,1.77
2019-05-25T11:30:33.268Z,1.80
2019-05-25T11:33:02.009Z,1.90
2019-05-25T11:35:35.171Z,1.80
2019-05-25T11:38:02.429Z,1.90
2019-05-25T11:40:32.928Z,2.00
2019-05-25T11:43:01.602Z,2.27
2019-05-25T11:45:30.281Z,2.13
2019-05-25T11:48:00.364Z,2.10
2019-05-25T11:50:32.786Z,2.20
2019-05-25T11:53:00.238Z,1.97
2019-05-25T11:55:27.719Z,1.80
2019-05-25T11:57:55.032Z,1.87
2019-05-25T12:00:25.848Z,2.10
2019-05-25T12:02:56.130Z,2.00
2019-05-25T12:05:25.477Z,2.43
2019-05-25T12:07:53.016Z,2.13
2019-05-25T12:10:21.056Z,2.50
2019-05-25T12:12:51.651Z,2.40
2019-05-25T12:15:32.786Z,2.07
2019-05-25T12:18:03.474Z,2.23
2019-05-25T12:20:31.093Z,2.13
2019-05-25T12:22:59.626Z,2.30
2019-05-25T12:25:27.544Z,2.20
2019-05-25T12:27:55.863Z,2.23
2019-05-25T12:30:23.282Z,2.10
2019-05-25T12:32:57.489Z,2.13
2019-05-25T12:35:24.905Z,2.20
2019-05-25T12:37:52.458Z,2.13
2019-05-25T12:40:22.755Z,2.23
2019-05-25T12:42:52.269Z,2.40
2019-05-25T12:45:19.906Z,2.30
2019-05-25T12:47:53.661Z,2.40
2019-05-25T12:50:25.335Z,2.47
2019-05-25T12:52:52.986Z,2.40
2019-05-25T12:55:20.814Z,2.10
2019-05-25T12:57:51.501Z,2.43
2019-05-25T13:00:21.308Z,2.67
2019-05-25T13:02:50.794Z,2.27
2019-05-25T13:05:31.177Z,2.67
2019-05-25T13:07:47.632Z,3.17
2019-05-25T13:10:15.987Z,2.90
2019-05-25T13:12:43.974Z,2.37
2019-05-25T13:15:14.632Z,2.40
2019-05-25T13:17:44.367Z,2.40
2019-05-25T13:20:14.989Z,2.30
2019-05-25T13:22:42.193Z,2.60
2019-05-25T13:25:10.745Z,2.50
2019-05-25T13:27:39.629Z,2.10
2019-05-25T13:30:07.893Z,2.20
2019-05-25T13:32:37.286Z,2.50
2019-05-25T13:35:06.667Z,2.73
2019-05-25T13:37:35.057Z,3.13
2019-05-25T13:40:04.302Z,2.47
2019-05-25T13:42:35.457Z,2.67
2019-05-25T13:45:03.559Z,2.87
2019-05-25T13:47:41.358Z,2.90
2019-05-25T13:50:18.260Z,2.50
2019-05-25T13:52:45.635Z,2.70
2019-05-25T13:55:13.308Z,2.53
2019-05-25T13:57:40.972Z,2.70
2019-05-25T14:00:09.612Z,2.63
2019-05-25T14:02:37.181Z,2.70
2019-05-25T14:05:04.828Z,2.40
2019-05-25T14:07:39.944Z,3.03
2019-05-25T14:10:10.100Z,2.30
2019-05-25T14:12:37.751Z,2.83
2019-05-25T14:15:05.430Z,3.33
2019-05-25T14:17:35.568Z,3.60
2019-05-25T14:20:03.161Z,3.03
2019-05-25T14:22:30.739Z,2.93
2019-05-25T14:24:59.015Z,3.07
2019-05-25T14:27:32.338Z,2.73
2019-05-25T14:29:59.713Z,3.33
2019-05-25T14:32:27.345Z,3.73
2019-05-25T14:34:54.953Z,4.10
2019-05-25T14:37:25.495Z,3.47
2019-05-25T14:39:53.929Z,3.70
2019-05-25T14:42:21.697Z,3.93
2019-05-25T14:44:50.276Z,3.17
2019-05-25T14:47:19.250Z,4.33
2019-05-25T14:49:48.190Z,3.80
2019-05-25T14:52:16.194Z,4.03
2019-05-25T14:54:44.337Z,3.87
2019-05-25T14:57:11.863Z,4.13
2019-05-25T14:59:42.874Z,4.23
2019-05-25T15:02:10.848Z,4.20
2019-05-25T15:04:38.492Z,5.37
2019-05-25T15:07:06.315Z,4.50
2019-05-25T15:09:36.118Z,5.27
2019-05-25T15:12:04.778Z,5.53
2019-05-25T15:14:38.502Z,5.57
2019-05-25T15:20:49.500Z,5.80
2019-05-25T15:24:36.970Z,5.03
2019-05-25T15:30:26.375Z,5.87
2019-05-25T15:33:00.027Z,5.10
2019-05-25T15:35:29.701Z,4.50
2019-05-25T15:37:59.536Z,4.27
2019-05-25T15:40:27.153Z,4.57
2019-05-25T15:42:55.205Z,3.10
2019-05-25T15:45:22.847Z,3.20
2019-05-25T15:47:52.402Z,3.03
2019-05-25T15:50:20.988Z,2.90
2019-05-25T15:52:49.021Z,2.90
2019-05-25T15:55:24.303Z,2.80
2019-05-25T15:57:51.945Z,3.10
2019-05-25T16:00:23.876Z,2.80
2019-05-25T16:02:51.726Z,3.23
2019-05-25T16:05:20.332Z,3.20
2019-05-25T16:07:49.745Z,2.90
2019-05-25T16:10:17.888Z,2.93
2019-05-25T16:12:46.546Z,3.07
2019-05-25T16:15:25.740Z,3.07
2019-05-25T16:17:59.345Z,3.60
2019-05-25T16:20:33.039Z,3.33
2019-05-25T16:23:00.604Z,3.47
2019-05-25T16:25:37.094Z,3.30
2019-05-25T16:28:05.575Z,3.57
2019-05-25T16:30:33.131Z,3.33
2019-05-25T16:33:13.022Z,3.17
2019-05-25T16:35:34.196Z,3.50
2019-05-25T16:38:02.766Z,3.40
2019-05-25T16:40:32.791Z,3.00
2019-05-25T16:43:04.459Z,3.30
2019-05-25T16:45:32.124Z,3.00
2019-05-25T16:48:00.036Z,3.53
2019-05-25T16:50:28.852Z,3.10
2019-05-25T16:52:56.422Z,3.83
2019-05-25T16:55:26.009Z,3.67
2019-05-25T16:57:59.310Z,3.47
2019-05-25T17:00:28.167Z,3.67
2019-05-25T17:02:56.067Z,3.83
2019-05-25T17:05:26.289Z,3.13
2019-05-25T17:08:07.701Z,3.93
2019-05-25T17:10:38.415Z,4.27
2019-05-25T17:13:06.301Z,3.20
2019-05-25T17:15:37.627Z,3.40
2019-05-25T17:18:05.365Z,3.20
2019-05-25T17:20:33.074Z,3.43
2019-05-25T17:23:01.101Z,3.70
2019-05-25T17:25:28.617Z,3.30
2019-05-25T17:27:56.695Z,3.10
2019-05-25T17:30:38.022Z,3.23
2019-05-25T17:33:05.729Z,3.50
2019-05-25T17:35:33.480Z,3.70
2019-05-25T17:38:03.027Z,3.57
2019-05-25T17:40:30.551Z,3.30
2019-05-25T17:43:05.420Z,3.30
2019-05-25T17:45:36.650Z,2.93
2019-05-25T17:48:21.112Z,3.30
2019-05-25T17:51:05.391Z,3.53
2019-05-25T17:53:33.385Z,3.10
2019-05-25T17:56:01.872Z,3.37
2019-05-25T17:58:31.499Z,2.90
2019-05-25T18:00:58.929Z,3.03
2019-05-25T18:03:27.210Z,2.43
2019-05-25T18:05:55.955Z,2.90
2019-05-25T18:08:23.612Z,3.43
2019-05-25T18:10:55.395Z,2.80
2019-05-25T18:13:23.003Z,3.40
2019-05-25T18:15:58.605Z,3.00
2019-05-25T18:18:29.623Z,3.47
2019-05-25T18:20:57.694Z,3.17
2019-05-25T18:23:29.604Z,3.30
2019-05-25T18:25:57.267Z,3.00
2019-05-25T18:28:31.000Z,3.40
2019-05-25T18:30:59.078Z,3.30
2019-05-25T18:33:27.801Z,3.37
2019-05-25T18:35:56.014Z,3.77
2019-05-25T18:38:29.241Z,3.83
2019-05-25T18:40:58.262Z,3.00
2019-05-25T18:43:25.902Z,3.27
2019-05-25T18:45:55.225Z,3.70
2019-05-25T18:48:23.001Z,4.10
2019-05-25T18:50:50.536Z,3.60
2019-05-25T18:53:18.290Z,3.93
2019-05-25T18:55:51.746Z,3.13
2019-05-25T18:58:19.191Z,3.10
2019-05-25T19:00:49.880Z,3.03
2019-05-25T19:03:17.931Z,3.33
2019-05-25T19:05:46.091Z,3.30
2019-05-25T19:08:14.894Z,3.20
2019-05-25T19:10:42.637Z,3.80
2019-05-25T19:13:11.157Z,4.23
2019-05-25T19:15:40.200Z,3.40
2019-05-25T19:18:07.714Z,3.90
2019-05-25T19:20:36.159Z,3.03
2019-05-25T19:23:03.908Z,3.33
2019-05-25T19:25:36.098Z,3.43
2019-05-25T19:28:10.590Z,3.10
2019-05-25T19:30:39.685Z,2.97
2019-05-25T19:33:11.164Z,3.70
2019-05-25T19:35:38.673Z,3.23
2019-05-25T19:38:06.061Z,3.10
2019-05-25T19:40:38.871Z,3.50
2019-05-25T19:43:08.094Z,2.70
2019-05-25T19:45:37.372Z,2.87
2019-05-25T19:48:08.650Z,3.00
2019-05-25T19:50:35.890Z,3.67
2019-05-25T19:53:03.498Z,3.90
2019-05-25T19:55:32.387Z,4.07
2019-05-25T19:58:00.519Z,3.97
2019-05-25T20:00:29.035Z,3.67
2019-05-25T20:02:57.280Z,3.83
2019-05-25T20:05:27.980Z,3.87
2019-05-25T20:07:55.736Z,4.17
2019-05-25T20:10:23.326Z,3.53
2019-05-25T20:12:54.997Z,3.80
2019-05-25T20:15:25.594Z,3.90
2019-05-25T20:17:54.044Z,3.27
2019-05-25T20:20:27.429Z,3.63
2019-05-25T20:22:55.870Z,4.00
2019-05-25T20:25:26.075Z,3.03
2019-05-25T20:27:53.735Z,4.00
2019-05-25T20:30:21.149Z,4.10
2019-05-25T20:32:49.366Z,4.20
2019-05-25T20:35:31.951Z,4.23
2019-05-25T20:37:48.087Z,4.13
2019-05-25T20:40:21.738Z,3.93
2019-05-25T20:42:50.107Z,3.80
2019-05-25T20:45:19.972Z,3.73
2019-05-25T20:47:48.626Z,3.87
2019-05-25T20:50:19.573Z,4.10
2019-05-25T20:52:47.409Z,4.40
2019-05-25T20:55:15.014Z,5.00
2019-05-25T20:57:43.860Z,4.70
2019-05-25T21:00:14.335Z,5.20
2019-05-25T21:02:44.004Z,4.20
2019-05-25T21:05:11.652Z,4.43
2019-05-25T21:07:40.707Z,4.93
2019-05-25T21:10:09.661Z,4.90
2019-05-25T21:12:40.567Z,5.13
2019-05-25T21:15:09.490Z,5.07
2019-05-25T21:17:36.858Z,5.23
2019-05-25T21:20:04.494Z,4.70
2019-05-25T21:22:31.867Z,5.70
2019-05-25T21:25:05.503Z,5.03
2019-05-25T21:27:31.127Z,4.77
2019-05-25T21:30:01.182Z,5.40
2019-05-25T21:32:33.478Z,4.43
2019-05-25T21:35:01.213Z,4.10
2019-05-25T21:37:28.801Z,4.57
2019-05-25T21:39:57.329Z,4.10
2019-05-25T21:42:28.599Z,4.40
2019-05-25T21:45:02.591Z,4.50
2019-05-25T21:47:31.272Z,5.17
2019-05-25T21:50:01.828Z,4.83
2019-05-25T21:52:29.643Z,4.90
2019-05-25T21:55:03.879Z,5.67
2019-05-25T21:57:31.870Z,6.20
2019-05-25T22:00:01.539Z,6.47
2019-05-25T22:02:29.119Z,6.10
2019-05-25T22:04:57.838Z,5.53
2019-05-25T22:07:26.210Z,6.27
2019-05-25T22:10:00.703Z,5.80
2019-05-25T22:12:28.412Z,5.67
2019-05-25T22:14:56.233Z,5.90
2019-05-25T22:17:24.745Z,5.37
2019-05-25T22:19:53.369Z,5.30
2019-05-25T22:22:26.748Z,5.80
2019-05-25T22:24:58.063Z,6.30
2019-05-25T22:27:26.043Z,7.10
2019-05-25T22:29:53.770Z,6.63
2019-05-25T22:32:23.628Z,7.70
2019-05-25T22:34:51.267Z,6.13
2019-05-25T22:37:18.941Z,7.07
2019-05-25T22:39:47.047Z,5.67
2019-05-25T22:42:14.664Z,5.73
2019-05-25T22:44:44.856Z,6.20
2019-05-25T22:47:13.198Z,4.83
2019-05-25T22:49:41.747Z,4.73
2019-05-25T22:52:10.519Z,4.70
2019-05-25T22:54:38.958Z,4.70
2019-05-25T22:57:08.620Z,4.30
2019-05-25T22:59:36.302Z,4.77
2019-05-25T23:02:09.847Z,4.63
2019-05-25T23:04:37.371Z,3.77
2019-05-25T23:07:04.879Z,4.53
2019-05-25T23:09:33.632Z,3.97
2019-05-25T23:12:01.111Z,4.10
2019-05-25T23:14:28.714Z,4.07
2019-05-25T23:16:56.368Z,4.17
2019-05-25T23:19:23.877Z,4.10
2019-05-25T23:21:52.383Z,4.47
2019-05-25T23:24:19.959Z,4.20
2019-05-25T23:26:51.727Z,5.00
2019-05-25T23:29:20.934Z,4.20
2019-05-25T23:31:48.417Z,4.20
2019-05-25T23:34:15.871Z,4.30
2019-05-25T23:36:43.903Z,4.30
2019-05-25T23:39:11.564Z,4.40
2019-05-25T23:41:39.333Z,4.70
2019-05-25T23:44:09.443Z,4.43
2019-05-25T23:46:41.055Z,5.13
2019-05-25T23:49:19.535Z,4.87
2019-05-25T23:51:50.566Z,5.17
2019-05-25T23:54:20.040Z,4.80
2019-05-25T23:57:12.812Z,4.53
2019-05-25T23:59:41.295Z,4.93
